createdAt,value
2019-02-22T00:02:18.091Z,51.15
2019-02-22T00:04:47.036Z,45.00
2019-02-22T00:07:15.699Z,45.88
2019-02-22T00:09:49.461Z,49.85
2019-02-22T00:12:14.766Z,44.45
2019-02-22T00:14:43.724Z,42.25
2019-02-22T00:17:12.765Z,43.35
2019-02-22T00:19:41.423Z,39.38
2019-02-22T00:22:10.634Z,38.42
2019-02-22T00:24:39.303Z,39.48
2019-02-22T00:27:08.318Z,37.98
2019-02-22T00:29:37.352Z,36.70
2019-02-22T00:32:06.092Z,37.28
2019-02-22T00:34:35.132Z,34.48
2019-02-22T00:37:03.909Z,30.82
2019-02-22T00:39:32.967Z,31.17
2019-02-22T00:42:02.260Z,30.85
2019-02-22T00:44:31.220Z,29.87
2019-02-22T00:47:00.421Z,30.80
2019-02-22T00:49:29.163Z,31.87
2019-02-22T00:51:58.098Z,33.18
2019-02-22T00:54:27.040Z,33.38
2019-02-22T00:56:55.941Z,32.13
2019-02-22T00:59:24.609Z,35.80
2019-02-22T01:01:53.275Z,30.50
2019-02-22T01:04:22.456Z,29.07
2019-02-22T01:06:51.123Z,26.37
2019-02-22T01:09:19.797Z,25.23
2019-02-22T01:11:48.707Z,24.55
2019-02-22T01:14:17.940Z,23.52
2019-02-22T01:16:46.616Z,24.75
2019-02-22T01:19:15.281Z,25.20
2019-02-22T01:21:43.971Z,24.18
2019-02-22T01:24:12.696Z,24.05
2019-02-22T01:26:41.695Z,24.77
2019-02-22T01:29:10.720Z,24.45
2019-02-22T01:31:39.667Z,25.45
2019-02-22T01:34:08.324Z,24.72
2019-02-22T01:36:37.001Z,27.48
2019-02-22T01:39:06.587Z,25.92
2019-02-22T01:41:35.277Z,24.85
2019-02-22T01:44:04.226Z,25.27
2019-02-22T01:46:32.927Z,24.25
2019-02-22T01:49:01.598Z,24.60
2019-02-22T01:51:30.601Z,25.77
2019-02-22T01:53:59.789Z,26.48
2019-02-22T01:56:28.777Z,27.65
2019-02-22T01:58:57.471Z,27.90
2019-02-22T02:01:26.667Z,27.85
2019-02-22T02:03:55.639Z,28.20
2019-02-22T02:06:24.958Z,26.37
2019-02-22T02:08:54.026Z,27.93
2019-02-22T02:11:23.012Z,24.35
2019-02-22T02:13:51.736Z,25.55
2019-02-22T02:16:20.413Z,24.85
2019-02-22T02:18:49.131Z,24.72
2019-02-22T02:21:18.106Z,25.00
2019-02-22T02:23:46.865Z,23.98
2019-02-22T02:26:15.576Z,27.20
2019-02-22T02:28:44.255Z,24.92
2019-02-22T02:31:13.035Z,24.07
2019-02-22T02:33:41.691Z,23.62
2019-02-22T02:36:10.362Z,26.45
2019-02-22T02:38:39.310Z,25.92
2019-02-22T02:41:11.435Z,27.02
2019-02-22T02:43:39.789Z,24.87
2019-02-22T02:46:08.408Z,24.77
2019-02-22T02:48:37.440Z,24.98
2019-02-22T02:51:06.429Z,24.65
2019-02-22T02:53:35.188Z,24.23
2019-02-22T02:56:04.203Z,23.87
2019-02-22T02:58:33.191Z,21.52
2019-02-22T03:01:01.966Z,20.00
2019-02-22T03:03:31.277Z,21.70
2019-02-22T03:06:17.789Z,22.10
2019-02-22T03:08:47.207Z,22.17
2019-02-22T03:11:20.542Z,20.82
2019-02-22T03:13:46.895Z,22.52
2019-02-22T03:16:15.739Z,20.43
2019-02-22T03:18:44.712Z,21.90
2019-02-22T03:21:13.635Z,24.12
2019-02-22T03:23:42.312Z,25.45
2019-02-22T03:26:11.009Z,23.05
2019-02-22T03:28:40.301Z,26.73
2019-02-22T03:31:11.165Z,23.95
2019-02-22T03:33:40.519Z,24.52
2019-02-22T03:36:09.174Z,24.37
2019-02-22T03:38:38.175Z,23.12
2019-02-22T03:41:07.168Z,25.05
2019-02-22T03:43:35.880Z,26.17
2019-02-22T03:46:04.945Z,25.65
2019-02-22T03:48:33.883Z,26.35
2019-02-22T03:51:03.279Z,26.65
2019-02-22T03:53:35.784Z,23.92
2019-02-22T03:56:04.530Z,22.87
2019-02-22T03:58:33.372Z,25.05
2019-02-22T04:01:02.804Z,23.57
2019-02-22T04:03:31.612Z,24.47
2019-02-22T04:06:00.689Z,25.17
2019-02-22T04:08:29.779Z,25.68
2019-02-22T04:10:59.073Z,24.67
2019-02-22T04:13:28.004Z,24.25
2019-02-22T04:15:56.665Z,25.32
2019-02-22T04:18:25.940Z,24.15
2019-02-22T04:20:54.882Z,25.48
2019-02-22T04:23:24.442Z,24.20
2019-02-22T04:25:54.155Z,23.77
2019-02-22T04:28:22.857Z,23.55
2019-02-22T04:30:51.526Z,24.50
2019-02-22T04:33:20.526Z,25.37
2019-02-22T04:35:49.187Z,24.90
2019-02-22T04:38:17.872Z,25.12
2019-02-22T04:40:46.912Z,43.98
2019-02-22T04:43:15.927Z,28.00
2019-02-22T04:45:44.669Z,30.35
2019-02-22T04:48:13.657Z,27.30
2019-02-22T04:50:42.409Z,31.15
2019-02-22T04:53:11.727Z,60.55
2019-02-22T04:55:40.733Z,47.08
2019-02-22T04:58:11.591Z,57.20
2019-02-22T05:00:40.567Z,86.67
2019-02-22T05:03:09.251Z,45.70
2019-02-22T05:05:38.242Z,54.98
2019-02-22T05:08:07.204Z,60.45
2019-02-22T05:10:36.231Z,38.38
2019-02-22T05:13:05.440Z,57.33
2019-02-22T05:15:34.155Z,26.82
2019-02-22T05:18:03.216Z,27.67
2019-02-22T05:20:31.987Z,31.30
2019-02-22T05:23:04.387Z,28.00
2019-02-22T05:25:31.514Z,28.95
2019-02-22T05:28:00.191Z,29.45
2019-02-22T05:30:29.502Z,27.87
2019-02-22T05:32:58.561Z,27.95
2019-02-22T05:35:27.259Z,27.30
2019-02-22T05:37:56.272Z,27.58
2019-02-22T05:40:27.138Z,29.20
2019-02-22T05:42:55.809Z,28.83
2019-02-22T05:45:24.529Z,31.33
2019-02-22T05:47:53.163Z,30.77
2019-02-22T05:50:21.857Z,30.23
2019-02-22T05:52:50.847Z,28.40
2019-02-22T05:55:19.773Z,30.75
2019-02-22T05:57:48.713Z,28.32
2019-02-22T06:00:18.343Z,29.12
2019-02-22T06:02:47.272Z,29.02
2019-02-22T06:05:16.112Z,30.02
2019-02-22T06:07:44.807Z,31.00
2019-02-22T06:10:13.491Z,30.05
2019-02-22T06:12:42.169Z,28.10
2019-02-22T06:15:11.003Z,28.07
2019-02-22T06:17:40.510Z,29.52
2019-02-22T06:20:10.877Z,30.62
2019-02-22T06:22:40.187Z,29.87
2019-02-22T06:25:09.495Z,27.85
2019-02-22T06:27:39.396Z,28.32
2019-02-22T06:30:08.583Z,29.15
2019-02-22T06:32:37.595Z,28.38
2019-02-22T06:35:08.830Z,28.20
2019-02-22T06:37:36.831Z,27.45
2019-02-22T06:40:05.909Z,28.23
2019-02-22T06:42:45.190Z,29.75
2019-02-22T06:45:06.195Z,30.00
2019-02-22T06:47:34.950Z,28.95
2019-02-22T06:50:03.725Z,28.77
2019-02-22T06:52:32.708Z,29.20
2019-02-22T06:55:01.399Z,28.32
2019-02-22T06:57:30.076Z,29.40
2019-02-22T06:59:58.771Z,29.57
2019-02-22T07:02:27.905Z,30.20
2019-02-22T07:04:56.600Z,27.85
2019-02-22T07:07:25.984Z,32.15
2019-02-22T07:09:54.939Z,30.85
2019-02-22T07:12:36.287Z,32.55
2019-02-22T07:15:05.909Z,33.87
2019-02-22T07:17:34.654Z,33.85
2019-02-22T07:20:04.022Z,34.65
2019-02-22T07:22:33.021Z,32.93
2019-02-22T07:25:01.731Z,31.45
2019-02-22T07:27:30.393Z,36.10
2019-02-22T07:29:59.070Z,34.70
2019-02-22T07:32:28.042Z,33.78
2019-02-22T07:34:56.714Z,35.90
2019-02-22T07:37:25.389Z,34.60
2019-02-22T07:39:54.594Z,35.10
2019-02-22T07:42:25.991Z,34.78
2019-02-22T07:44:54.974Z,34.08
2019-02-22T07:47:23.691Z,34.53
2019-02-22T07:49:52.620Z,34.98
2019-02-22T07:52:21.321Z,36.90
2019-02-22T07:54:49.983Z,33.73
2019-02-22T07:57:18.679Z,40.30
2019-02-22T07:59:47.371Z,36.45
2019-02-22T08:02:16.388Z,41.13
2019-02-22T08:04:45.384Z,36.93
2019-02-22T08:07:14.382Z,37.90
2019-02-22T08:09:43.366Z,40.30
2019-02-22T08:12:12.052Z,38.65
2019-02-22T08:14:40.992Z,35.20
2019-02-22T08:17:09.993Z,34.85
2019-02-22T08:19:38.678Z,36.98
2019-02-22T08:22:08.016Z,35.08
2019-02-22T08:24:36.747Z,35.98
2019-02-22T08:27:05.435Z,34.05
2019-02-22T08:29:34.110Z,34.05
2019-02-22T08:32:03.181Z,32.55
2019-02-22T08:34:31.858Z,34.48
2019-02-22T08:37:00.555Z,32.10
2019-02-22T08:39:30.084Z,36.75
2019-02-22T08:41:59.055Z,36.80
2019-02-22T08:44:28.156Z,41.45
2019-02-22T08:46:56.838Z,35.83
2019-02-22T08:49:25.521Z,32.67
2019-02-22T08:51:54.527Z,34.13
2019-02-22T08:54:23.556Z,34.73
2019-02-22T08:56:52.790Z,36.13
2019-02-22T08:59:22.365Z,33.73
2019-02-22T09:01:51.041Z,33.60
2019-02-22T09:04:20.066Z,33.05
2019-02-22T09:06:48.764Z,32.60
2019-02-22T09:09:18.052Z,32.75
2019-02-22T09:11:46.746Z,31.73
2019-02-22T09:14:16.050Z,31.33
2019-02-22T09:16:44.721Z,30.85
2019-02-22T09:19:13.410Z,30.97
2019-02-22T09:21:42.414Z,31.35
2019-02-22T09:24:11.115Z,29.48
2019-02-22T09:26:39.785Z,35.63
2019-02-22T09:29:08.708Z,27.45
2019-02-22T09:31:37.387Z,25.45
2019-02-22T09:34:06.066Z,26.17
2019-02-22T09:36:34.755Z,24.07
2019-02-22T09:39:05.104Z,23.85
2019-02-22T09:41:33.797Z,22.98
2019-02-22T09:44:02.476Z,20.45
2019-02-22T09:46:31.726Z,22.45
2019-02-22T09:49:00.431Z,21.97
2019-02-22T09:51:29.086Z,18.60
2019-02-22T09:53:57.784Z,19.50
2019-02-22T09:56:26.740Z,20.37
2019-02-22T09:58:55.776Z,21.55
2019-02-22T10:01:24.448Z,22.30
2019-02-22T10:03:53.149Z,21.97
2019-02-22T10:06:21.838Z,16.65
2019-02-22T10:08:50.822Z,18.67
2019-02-22T10:11:20.534Z,16.95
2019-02-22T10:13:49.285Z,15.83
2019-02-22T10:16:18.281Z,16.17
2019-02-22T10:18:47.061Z,17.73
2019-02-22T10:21:16.093Z,16.57
2019-02-22T10:23:44.816Z,15.95
2019-02-22T10:26:13.775Z,17.62
2019-02-22T10:28:42.753Z,15.93
2019-02-22T10:31:12.059Z,14.60
2019-02-22T10:33:40.806Z,15.35
2019-02-22T10:36:09.855Z,14.47
2019-02-22T10:38:39.111Z,15.18
2019-02-22T10:41:09.946Z,14.28
2019-02-22T10:43:38.971Z,13.58
2019-02-22T10:46:07.657Z,13.15
2019-02-22T10:48:36.634Z,13.00
2019-02-22T10:51:05.332Z,12.88
2019-02-22T10:53:34.018Z,13.53
2019-02-22T10:56:03.219Z,10.82
2019-02-22T10:58:31.917Z,9.28
2019-02-22T11:01:02.703Z,10.40
2019-02-22T11:03:33.378Z,10.23
2019-02-22T11:06:02.378Z,10.95
2019-02-22T11:08:31.099Z,10.68
2019-02-22T11:10:59.780Z,10.53
2019-02-22T11:13:28.559Z,9.83
2019-02-22T11:15:57.228Z,10.28
2019-02-22T11:18:25.987Z,11.05
2019-02-22T11:20:54.675Z,10.35
2019-02-22T11:23:23.418Z,10.65
2019-02-22T11:25:52.468Z,10.32
2019-02-22T11:28:21.190Z,11.38
2019-02-22T11:30:50.222Z,11.22
2019-02-22T11:33:18.979Z,10.38
2019-02-22T11:35:47.720Z,9.85
2019-02-22T11:38:16.387Z,9.58
2019-02-22T11:40:45.709Z,11.43
2019-02-22T11:43:14.392Z,9.78
2019-02-22T11:45:43.461Z,19.32
2019-02-22T11:48:12.155Z,16.20
2019-02-22T11:50:40.855Z,9.80
2019-02-22T11:53:09.539Z,11.57
2019-02-22T11:55:38.633Z,10.78
2019-02-22T11:58:07.382Z,13.70
2019-02-22T12:00:36.407Z,11.65
2019-02-22T12:03:21.282Z,10.70
2019-02-22T12:05:35.777Z,10.30
2019-02-22T12:08:04.482Z,14.47
2019-02-22T12:10:33.154Z,16.87
2019-02-22T12:13:02.108Z,12.50
2019-02-22T12:15:31.575Z,11.03
2019-02-22T12:18:00.629Z,10.10
2019-02-22T12:20:29.657Z,9.50
2019-02-22T12:22:58.690Z,10.00
2019-02-22T12:25:27.378Z,9.68
2019-02-22T12:27:56.406Z,9.65
2019-02-22T12:30:25.780Z,10.53
2019-02-22T12:32:54.972Z,12.37
2019-02-22T12:35:23.730Z,9.85
2019-02-22T12:37:52.526Z,10.30
2019-02-22T12:40:21.285Z,9.55
2019-02-22T12:42:49.963Z,8.88
2019-02-22T12:45:19.326Z,10.23
2019-02-22T12:47:47.970Z,9.55
2019-02-22T12:50:16.647Z,9.13
2019-02-22T12:52:45.562Z,9.40
2019-02-22T12:55:14.495Z,8.98
2019-02-22T12:57:43.972Z,8.53
2019-02-22T13:00:13.406Z,8.55
2019-02-22T13:02:42.353Z,9.43
2019-02-22T13:05:13.343Z,10.28
2019-02-22T13:07:42.064Z,9.00
2019-02-22T13:10:11.783Z,9.33
2019-02-22T13:12:40.499Z,9.40
2019-02-22T13:15:13.937Z,9.58
2019-02-22T13:17:41.414Z,9.60
2019-02-22T13:20:10.537Z,9.75
2019-02-22T13:22:39.621Z,9.53
2019-02-22T13:25:08.532Z,9.98
2019-02-22T13:27:37.606Z,9.23
2019-02-22T13:30:07.436Z,10.18
2019-02-22T13:32:36.266Z,10.88
2019-02-22T13:35:05.359Z,13.90
2019-02-22T13:37:34.132Z,17.07
2019-02-22T13:40:03.151Z,17.57
2019-02-22T13:42:31.847Z,16.00
2019-02-22T13:45:01.982Z,13.00
2019-02-22T13:47:31.021Z,12.63
2019-02-22T13:50:00.617Z,12.28
2019-02-22T13:52:30.018Z,12.82
2019-02-22T13:54:58.670Z,13.22
2019-02-22T13:57:30.358Z,12.95
2019-02-22T13:59:59.142Z,14.38
2019-02-22T14:02:30.600Z,14.85
2019-02-22T14:04:59.278Z,15.30
2019-02-22T14:07:27.992Z,15.28
2019-02-22T14:09:56.680Z,16.20
2019-02-22T14:12:25.357Z,15.48
2019-02-22T14:14:56.688Z,16.35
2019-02-22T14:17:25.665Z,16.95
2019-02-22T14:19:54.589Z,15.80
2019-02-22T14:22:23.557Z,17.92
2019-02-22T14:24:52.863Z,15.23
2019-02-22T14:27:21.539Z,15.90
2019-02-22T14:29:50.192Z,15.40
2019-02-22T14:32:18.885Z,13.95
2019-02-22T14:34:47.640Z,13.50
2019-02-22T14:37:16.371Z,13.65
2019-02-22T14:39:45.349Z,12.03
2019-02-22T14:42:14.058Z,11.90
2019-02-22T14:44:43.024Z,13.10
2019-02-22T14:47:11.990Z,14.33
2019-02-22T14:49:40.644Z,14.58
2019-02-22T14:52:09.318Z,15.18
2019-02-22T14:54:38.216Z,14.83
2019-02-22T14:57:06.873Z,15.75
2019-02-22T14:59:35.534Z,17.15
2019-02-22T15:02:04.591Z,18.05
2019-02-22T15:04:36.165Z,17.62
2019-02-22T15:07:04.321Z,19.15
2019-02-22T15:09:32.975Z,18.73
2019-02-22T15:12:01.638Z,18.98
2019-02-22T15:14:30.649Z,20.55
2019-02-22T15:17:27.807Z,19.20
2019-02-22T15:19:56.459Z,19.00
2019-02-22T15:22:25.125Z,19.57
2019-02-22T15:24:54.371Z,20.10
2019-02-22T15:27:23.382Z,20.12
2019-02-22T15:29:52.082Z,20.70
2019-02-22T15:32:20.708Z,19.42
2019-02-22T15:34:49.376Z,19.95
2019-02-22T15:37:18.624Z,20.37
2019-02-22T15:39:48.901Z,20.30
2019-02-22T15:42:17.757Z,19.40
2019-02-22T15:44:46.702Z,18.60
2019-02-22T15:47:15.644Z,19.20
2019-02-22T15:49:44.313Z,19.62
2019-02-22T15:52:13.046Z,20.72
2019-02-22T15:54:41.712Z,20.32
2019-02-22T15:57:10.363Z,21.27
2019-02-22T15:59:39.298Z,18.37
2019-02-22T16:02:07.953Z,21.65
2019-02-22T16:04:55.655Z,20.77
2019-02-22T16:07:24.435Z,21.27
2019-02-22T16:09:53.106Z,20.95
2019-02-22T16:12:22.030Z,22.98
2019-02-22T16:14:50.690Z,30.85
2019-02-22T16:17:19.333Z,46.65
2019-02-22T16:19:51.280Z,23.50
2019-02-22T16:22:19.329Z,25.15
2019-02-22T16:24:48.323Z,24.87
2019-02-22T16:27:17.264Z,24.90
2019-02-22T16:29:46.211Z,31.07
2019-02-22T16:32:15.131Z,28.20
2019-02-22T16:34:46.615Z,28.50
2019-02-22T16:37:14.575Z,25.27
2019-02-22T16:39:43.919Z,25.10
2019-02-22T16:42:12.570Z,25.97
2019-02-22T16:44:41.299Z,24.85
2019-02-22T16:47:10.182Z,22.95
2019-02-22T16:49:41.098Z,23.92
2019-02-22T16:52:09.840Z,23.52
2019-02-22T16:54:40.667Z,23.50
2019-02-22T16:57:09.582Z,23.25
2019-02-22T16:59:38.277Z,23.10
2019-02-22T17:02:07.163Z,22.77
2019-02-22T17:04:36.720Z,22.65
2019-02-22T17:07:05.663Z,22.77
2019-02-22T17:09:34.334Z,21.85
2019-02-22T17:12:06.543Z,22.17
2019-02-22T17:14:39.184Z,21.37
2019-02-22T17:17:10.150Z,20.45
2019-02-22T17:19:38.834Z,19.73
2019-02-22T17:22:09.662Z,19.70
2019-02-22T17:24:38.281Z,21.17
2019-02-22T17:27:07.286Z,19.30
2019-02-22T17:29:35.946Z,24.23
2019-02-22T17:32:04.612Z,19.48
2019-02-22T17:34:33.293Z,15.88
2019-02-22T17:37:02.584Z,14.10
2019-02-22T17:39:31.258Z,12.93
2019-02-22T17:42:00.250Z,13.00
2019-02-22T17:44:30.308Z,12.85
2019-02-22T17:46:58.966Z,12.50
2019-02-22T17:49:27.893Z,12.53
2019-02-22T17:51:56.956Z,14.50
2019-02-22T17:54:25.890Z,14.38
2019-02-22T17:56:55.116Z,14.73
2019-02-22T17:59:24.498Z,15.00
2019-02-22T18:01:53.187Z,14.30
2019-02-22T18:04:22.087Z,13.75
2019-02-22T18:06:50.768Z,14.63
2019-02-22T18:09:19.894Z,13.90
2019-02-22T18:11:48.827Z,12.82
2019-02-22T18:14:17.486Z,12.93
2019-02-22T18:16:46.242Z,13.55
2019-02-22T18:19:15.236Z,12.60
2019-02-22T18:21:44.016Z,13.68
2019-02-22T18:24:12.681Z,13.62
2019-02-22T18:26:41.408Z,12.63
2019-02-22T18:29:10.148Z,13.40
2019-02-22T18:31:39.105Z,13.05
2019-02-22T18:34:07.858Z,13.50
2019-02-22T18:36:37.082Z,14.05
2019-02-22T18:39:07.520Z,14.10
2019-02-22T18:41:36.454Z,14.33
2019-02-22T18:44:05.674Z,13.60
2019-02-22T18:46:34.628Z,14.95
2019-02-22T18:49:03.284Z,14.78
2019-02-22T18:51:32.211Z,15.18
2019-02-22T18:54:00.893Z,14.40
2019-02-22T18:56:30.055Z,15.78
2019-02-22T18:58:59.013Z,15.10
2019-02-22T19:01:27.702Z,14.93
2019-02-22T19:03:56.372Z,13.98
2019-02-22T19:06:25.057Z,15.50
2019-02-22T19:08:54.338Z,13.88
2019-02-22T19:11:23.023Z,15.35
2019-02-22T19:13:52.255Z,14.63
2019-02-22T19:16:20.995Z,16.70
2019-02-22T19:18:49.660Z,15.65
2019-02-22T19:21:18.319Z,17.98
2019-02-22T19:23:47.275Z,16.65
2019-02-22T19:26:16.283Z,14.45
2019-02-22T19:28:45.269Z,16.00
2019-02-22T19:31:14.237Z,14.80
2019-02-22T19:33:43.461Z,15.78
2019-02-22T19:36:12.140Z,16.02
2019-02-22T19:38:40.815Z,14.58
2019-02-22T19:41:09.750Z,14.98
2019-02-22T19:43:40.783Z,14.38
2019-02-22T19:46:10.904Z,15.72
2019-02-22T19:48:39.584Z,15.53
2019-02-22T19:51:08.272Z,15.10
2019-02-22T19:53:37.351Z,15.38
2019-02-22T19:56:06.051Z,15.63
2019-02-22T19:58:35.015Z,15.50
2019-02-22T20:01:03.665Z,15.85
2019-02-22T20:03:32.347Z,16.27
2019-02-22T20:06:01.008Z,15.60
2019-02-22T20:08:29.673Z,15.93
2019-02-22T20:10:58.361Z,16.60
2019-02-22T20:13:27.061Z,16.35
2019-02-22T20:15:56.219Z,15.90
2019-02-22T20:18:25.155Z,19.37
2019-02-22T20:20:54.050Z,16.87
2019-02-22T20:23:23.228Z,17.17
2019-02-22T20:25:51.936Z,18.73
2019-02-22T20:28:20.905Z,18.25
2019-02-22T20:30:49.973Z,23.55
2019-02-22T20:33:18.647Z,19.30
2019-02-22T20:35:47.636Z,19.07
2019-02-22T20:38:16.379Z,18.02
2019-02-22T20:40:45.599Z,19.55
2019-02-22T20:43:14.272Z,19.32
2019-02-22T20:45:42.936Z,17.73
2019-02-22T20:48:11.984Z,19.75
2019-02-22T20:50:40.646Z,19.70
2019-02-22T20:53:09.313Z,18.37
2019-02-22T20:55:38.020Z,20.00
2019-02-22T20:58:06.657Z,17.82
2019-02-22T21:00:35.344Z,20.77
2019-02-22T21:03:04.458Z,21.25
2019-02-22T21:05:33.147Z,20.20
2019-02-22T21:08:01.830Z,21.57
2019-02-22T21:10:30.998Z,19.70
2019-02-22T21:13:00.231Z,19.25
2019-02-22T21:15:28.994Z,19.87
2019-02-22T21:17:57.648Z,19.42
2019-02-22T21:20:26.549Z,19.48
2019-02-22T21:22:55.745Z,23.07
2019-02-22T21:25:24.439Z,20.95
2019-02-22T21:27:53.119Z,20.15
2019-02-22T21:30:25.272Z,20.00
2019-02-22T21:32:54.253Z,19.62
2019-02-22T21:35:22.941Z,19.92
2019-02-22T21:37:51.610Z,17.98
2019-02-22T21:40:20.294Z,19.82
2019-02-22T21:42:49.202Z,19.82
2019-02-22T21:45:17.966Z,21.15
2019-02-22T21:47:54.656Z,20.72
2019-02-22T21:50:17.953Z,20.00
2019-02-22T21:52:47.133Z,20.85
2019-02-22T21:55:15.842Z,20.62
2019-02-22T21:57:44.628Z,19.87
2019-02-22T22:00:17.631Z,19.73
2019-02-22T22:02:46.610Z,18.92
2019-02-22T22:05:15.290Z,19.15
2019-02-22T22:07:43.971Z,19.77
2019-02-22T22:10:12.645Z,19.92
2019-02-22T22:12:41.655Z,22.10
2019-02-22T22:15:10.902Z,21.10
2019-02-22T22:17:39.922Z,20.90
2019-02-22T22:20:09.061Z,20.20
2019-02-22T22:22:37.896Z,21.42
2019-02-22T22:25:06.946Z,20.35
2019-02-22T22:27:37.530Z,20.32
2019-02-22T22:30:06.956Z,19.87
2019-02-22T22:32:36.192Z,20.70
2019-02-22T22:35:05.313Z,20.97
2019-02-22T22:37:34.292Z,20.12
2019-02-22T22:40:02.977Z,21.35
2019-02-22T22:42:31.639Z,21.80
2019-02-22T22:45:01.182Z,21.27
2019-02-22T22:47:29.922Z,23.22
2019-02-22T22:50:01.057Z,20.95
2019-02-22T22:52:30.012Z,21.03
2019-02-22T22:55:01.123Z,20.72
2019-02-22T22:57:29.973Z,20.45
2019-02-22T22:59:59.188Z,20.62
2019-02-22T23:02:28.352Z,20.32
2019-02-22T23:04:57.039Z,22.25
2019-02-22T23:07:25.840Z,21.33
2019-02-22T23:09:54.872Z,22.48
2019-02-22T23:12:23.944Z,23.55
2019-02-22T23:14:52.898Z,22.85
2019-02-22T23:17:21.807Z,23.22
2019-02-22T23:19:50.801Z,22.90
2019-02-22T23:22:19.437Z,23.90
2019-02-22T23:24:48.130Z,26.33
2019-02-22T23:27:17.042Z,23.65
2019-02-22T23:29:45.804Z,25.30
2019-02-22T23:32:14.712Z,24.92
2019-02-22T23:34:43.991Z,23.83
2019-02-22T23:37:12.705Z,21.73
2019-02-22T23:39:41.438Z,23.02
2019-02-22T23:42:10.373Z,22.13
2019-02-22T23:44:39.359Z,21.90
2019-02-22T23:47:08.365Z,23.18
2019-02-22T23:49:37.029Z,22.87
2019-02-22T23:52:05.712Z,22.10
2019-02-22T23:54:34.383Z,21.45
2019-02-22T23:57:03.052Z,21.50
2019-02-22T23:59:32.198Z,20.95
